createdAt,value
2022-12-16T00:00:12.108Z,1.20
2022-12-16T00:02:39.296Z,1.30
2022-12-16T00:05:06.728Z,1.20
2022-12-16T00:07:35.345Z,1.20
2022-12-16T00:10:02.709Z,1.30
2022-12-16T00:12:29.702Z,1.30
2022-12-16T00:14:56.597Z,1.30
2022-12-16T00:17:23.557Z,1.20
2022-12-16T00:19:50.466Z,1.30
2022-12-16T00:22:17.550Z,1.20
2022-12-16T00:24:44.727Z,1.20
2022-12-16T00:27:11.604Z,1.30
2022-12-16T00:29:39.054Z,1.30
2022-12-16T00:32:06.383Z,1.10
2022-12-16T00:34:33.384Z,1.30
2022-12-16T00:37:00.297Z,1.30
2022-12-16T00:39:27.207Z,1.30
2022-12-16T00:41:54.127Z,1.30
2022-12-16T00:44:21.890Z,1.30
2022-12-16T00:46:48.801Z,1.30
2022-12-16T00:49:15.818Z,1.30
2022-12-16T00:51:42.783Z,1.30
2022-12-16T00:54:09.678Z,1.30
2022-12-16T00:56:36.996Z,1.30
2022-12-16T00:59:03.906Z,1.30
2022-12-16T01:01:30.906Z,1.30
2022-12-16T01:03:58.079Z,1.30
2022-12-16T01:06:25.141Z,1.30
2022-12-16T01:08:52.044Z,1.40
2022-12-16T01:11:20.715Z,1.30
2022-12-16T01:13:51.901Z,1.30
2022-12-16T01:16:19.708Z,1.40
2022-12-16T01:18:46.840Z,1.30
2022-12-16T01:21:15.749Z,1.40
2022-12-16T01:23:43.055Z,1.40
2022-12-16T01:26:16.239Z,1.40
2022-12-16T01:28:43.088Z,1.30
2022-12-16T01:31:10.799Z,1.30
2022-12-16T01:33:37.680Z,1.30
2022-12-16T01:36:08.878Z,1.30
2022-12-16T01:38:36.911Z,1.30
2022-12-16T01:41:05.164Z,1.30
2022-12-16T01:43:36.881Z,1.30
2022-12-16T01:46:25.065Z,1.30
2022-12-16T01:49:05.545Z,1.30
2022-12-16T01:51:48.979Z,1.30
2022-12-16T01:54:31.563Z,1.30
2022-12-16T01:57:04.524Z,1.30
2022-12-16T01:59:32.973Z,1.30
2022-12-16T02:02:00.494Z,1.30
2022-12-16T02:04:30.138Z,1.30
2022-12-16T02:06:58.181Z,1.30
2022-12-16T02:09:25.601Z,1.30
2022-12-16T02:12:30.362Z,1.30
2022-12-16T02:15:22.239Z,1.30
2022-12-16T02:18:00.904Z,1.30
2022-12-16T02:21:20.721Z,1.30
2022-12-16T02:24:30.910Z,1.30
2022-12-16T02:27:29.920Z,1.20
2022-12-16T02:30:31.821Z,1.20
2022-12-16T02:33:34.857Z,1.20
2022-12-16T02:36:10.817Z,1.30
2022-12-16T02:39:02.334Z,1.20
2022-12-16T02:41:47.595Z,1.30
2022-12-16T02:44:16.501Z,1.30
2022-12-16T02:46:55.960Z,1.20
2022-12-16T02:49:22.681Z,1.30
2022-12-16T02:51:50.397Z,1.30
2022-12-16T02:54:18.923Z,1.30
2022-12-16T02:57:37.694Z,1.20
2022-12-16T03:00:14.214Z,1.30
2022-12-16T03:03:02.034Z,1.20
2022-12-16T03:05:41.046Z,1.20
2022-12-16T03:08:29.785Z,1.20
2022-12-16T03:11:02.128Z,1.30
2022-12-16T03:13:40.485Z,1.30
2022-12-16T03:16:10.844Z,1.30
2022-12-16T03:18:43.264Z,1.20
2022-12-16T03:21:12.636Z,1.30
2022-12-16T03:23:55.606Z,1.20
2022-12-16T03:26:30.835Z,1.20
2022-12-16T03:29:25.661Z,1.20
2022-12-16T03:32:09.993Z,1.20
2022-12-16T03:34:47.023Z,1.20
2022-12-16T03:37:14.437Z,1.30
2022-12-16T03:39:49.493Z,1.20
2022-12-16T03:42:16.721Z,1.30
2022-12-16T03:44:48.968Z,1.30
2022-12-16T03:47:21.667Z,1.30
2022-12-16T03:49:50.548Z,1.20
2022-12-16T03:52:17.445Z,1.30
2022-12-16T03:54:44.312Z,1.30
2022-12-16T03:57:15.391Z,1.30
2022-12-16T03:59:43.134Z,1.30
2022-12-16T04:02:10.243Z,1.30
2022-12-16T04:04:37.310Z,1.30
2022-12-16T04:07:22.137Z,1.30
2022-12-16T04:09:50.257Z,1.30
2022-12-16T04:12:36.155Z,1.30
2022-12-16T04:15:39.009Z,1.30
2022-12-16T04:18:27.341Z,1.30
2022-12-16T04:21:15.318Z,1.30
2022-12-16T04:24:11.687Z,1.30
2022-12-16T04:26:56.920Z,1.30
2022-12-16T04:29:24.516Z,1.30
2022-12-16T04:31:52.365Z,1.30
2022-12-16T04:34:26.393Z,1.30
2022-12-16T04:37:21.220Z,1.30
2022-12-16T04:40:06.419Z,1.30
2022-12-16T04:42:52.215Z,1.30
2022-12-16T04:45:37.429Z,1.30
2022-12-16T04:48:23.190Z,1.30
2022-12-16T04:51:25.035Z,1.30
2022-12-16T04:54:10.664Z,1.20
2022-12-16T04:57:00.438Z,1.30
2022-12-16T04:59:45.711Z,1.30
2022-12-16T05:02:31.223Z,1.30
2022-12-16T05:05:16.572Z,1.30
2022-12-16T05:08:01.809Z,1.30
2022-12-16T05:10:47.280Z,1.30
2022-12-16T05:13:32.812Z,1.30
2022-12-16T05:16:18.465Z,1.30
2022-12-16T05:19:03.689Z,1.30
2022-12-16T05:21:48.864Z,1.30
2022-12-16T05:24:34.099Z,1.30
2022-12-16T05:27:19.237Z,1.40
2022-12-16T05:30:04.462Z,1.30
2022-12-16T05:32:49.771Z,1.30
2022-12-16T05:35:36.116Z,1.30
2022-12-16T05:38:21.429Z,1.30
2022-12-16T05:41:07.256Z,1.30
2022-12-16T05:43:52.465Z,1.40
2022-12-16T05:46:38.050Z,1.30
2022-12-16T05:49:23.334Z,1.30
2022-12-16T05:52:08.793Z,1.30
2022-12-16T05:54:53.973Z,1.40
2022-12-16T05:57:39.145Z,1.40
2022-12-16T06:00:25.358Z,1.40
2022-12-16T06:03:10.530Z,1.40
2022-12-16T06:05:55.816Z,1.40
2022-12-16T06:08:40.983Z,1.40
2022-12-16T06:11:26.301Z,1.40
2022-12-16T06:14:28.629Z,1.40
2022-12-16T06:17:14.290Z,1.40
2022-12-16T06:19:59.460Z,3.60
2022-12-16T06:22:44.592Z,1.40
2022-12-16T06:25:29.909Z,1.40
2022-12-16T06:28:15.038Z,1.30
2022-12-16T06:31:00.370Z,1.30
2022-12-16T06:33:45.636Z,1.40
2022-12-16T06:36:31.484Z,1.40
2022-12-16T06:39:16.754Z,1.50
2022-12-16T06:42:01.863Z,1.40
2022-12-16T06:44:46.997Z,1.40
2022-12-16T06:47:32.498Z,1.50
2022-12-16T06:50:17.941Z,1.50
2022-12-16T06:53:03.359Z,1.50
2022-12-16T06:55:48.921Z,1.40
2022-12-16T06:58:34.674Z,1.40
2022-12-16T07:01:20.115Z,1.50
2022-12-16T07:04:05.634Z,1.50
2022-12-16T07:06:51.408Z,1.50
2022-12-16T07:09:56.342Z,1.40
2022-12-16T07:12:42.191Z,1.40
2022-12-16T07:15:28.344Z,1.50
2022-12-16T07:18:13.525Z,1.40
2022-12-16T07:20:58.748Z,1.40
2022-12-16T07:23:43.912Z,1.40
2022-12-16T07:26:29.372Z,1.50
2022-12-16T07:29:14.959Z,1.40
2022-12-16T07:32:00.497Z,1.50
2022-12-16T07:34:49.962Z,1.40
2022-12-16T07:37:36.451Z,1.50
2022-12-16T07:40:22.751Z,1.50
2022-12-16T07:43:08.085Z,1.50
2022-12-16T07:45:53.962Z,1.50
2022-12-16T07:48:39.268Z,1.60
2022-12-16T07:51:25.155Z,1.60
2022-12-16T07:54:10.404Z,1.60
2022-12-16T07:56:55.753Z,1.60
2022-12-16T07:59:40.847Z,1.60
2022-12-16T08:02:33.169Z,1.60
2022-12-16T08:05:18.528Z,1.60
2022-12-16T08:08:03.822Z,4.40
2022-12-16T08:10:49.036Z,1.50
2022-12-16T08:13:34.751Z,1.60
2022-12-16T08:16:20.493Z,1.60
2022-12-16T08:19:10.751Z,1.60
2022-12-16T08:21:56.917Z,1.70
2022-12-16T08:24:42.154Z,1.70
2022-12-16T08:27:27.842Z,1.70
2022-12-16T08:30:32.981Z,1.60
2022-12-16T08:36:24.657Z,1.70
2022-12-16T08:39:10.427Z,1.70
2022-12-16T08:41:55.729Z,1.70
2022-12-16T08:44:40.970Z,1.70
2022-12-16T08:47:26.227Z,1.70
2022-12-16T08:50:11.443Z,1.70
2022-12-16T08:52:57.253Z,1.70
2022-12-16T08:55:42.401Z,1.80
2022-12-16T08:58:27.467Z,1.70
2022-12-16T09:01:12.749Z,1.70
2022-12-16T09:03:58.490Z,1.80
2022-12-16T09:06:43.805Z,1.80
2022-12-16T09:09:29.178Z,1.80
2022-12-16T09:12:14.327Z,1.80
2022-12-16T09:14:59.871Z,1.80
2022-12-16T09:17:45.059Z,1.90
2022-12-16T09:20:40.929Z,1.80
2022-12-16T09:23:27.051Z,1.90
2022-12-16T09:26:15.428Z,1.90
2022-12-16T09:29:00.682Z,1.90
2022-12-16T09:31:45.821Z,1.90
2022-12-16T09:34:31.256Z,1.90
2022-12-16T09:37:16.441Z,2.00
2022-12-16T09:40:01.620Z,1.90
2022-12-16T09:43:34.679Z,1.90
2022-12-16T09:46:26.869Z,2.00
2022-12-16T09:49:34.032Z,2.00
2022-12-16T09:52:22.218Z,2.00
2022-12-16T09:55:08.066Z,2.00
2022-12-16T09:57:55.530Z,2.10
2022-12-16T10:00:46.609Z,2.10
2022-12-16T10:03:41.143Z,2.10
2022-12-16T10:06:54.777Z,2.10
2022-12-16T10:10:17.206Z,2.20
2022-12-16T10:13:11.748Z,2.30
2022-12-16T10:16:18.573Z,2.20
2022-12-16T10:19:36.511Z,3.00
2022-12-16T10:22:35.933Z,2.30
2022-12-16T10:25:44.735Z,2.30
2022-12-16T10:28:37.433Z,2.70
2022-12-16T10:31:34.932Z,2.60
2022-12-16T10:34:20.878Z,2.30
2022-12-16T10:37:13.199Z,2.40
2022-12-16T10:40:10.558Z,2.40
2022-12-16T10:43:05.385Z,2.30
2022-12-16T10:45:57.339Z,2.40
2022-12-16T10:48:55.122Z,2.40
2022-12-16T10:51:46.298Z,2.40
2022-12-16T10:54:53.795Z,2.50
2022-12-16T10:58:10.212Z,2.50
2022-12-16T11:01:07.436Z,2.40
2022-12-16T11:03:56.389Z,2.40
2022-12-16T11:06:53.893Z,2.50
2022-12-16T11:09:47.679Z,2.50
2022-12-16T11:12:44.893Z,2.50
2022-12-16T11:15:46.513Z,2.50
2022-12-16T11:18:40.556Z,2.60
2022-12-16T11:21:39.001Z,2.60
2022-12-16T11:24:38.051Z,2.70
2022-12-16T11:27:38.209Z,2.60
2022-12-16T11:30:40.908Z,2.70
2022-12-16T11:33:43.604Z,2.70
2022-12-16T11:36:43.545Z,2.70
2022-12-16T11:39:37.029Z,2.80
2022-12-16T11:42:25.191Z,2.80
2022-12-16T11:45:14.611Z,2.80
2022-12-16T11:48:14.409Z,2.80
2022-12-16T11:51:16.052Z,2.80
2022-12-16T11:54:18.525Z,2.90
2022-12-16T11:57:05.351Z,2.90
2022-12-16T12:00:26.814Z,2.90
2022-12-16T12:03:35.585Z,2.90
2022-12-16T12:06:41.983Z,2.80
2022-12-16T12:09:44.247Z,2.80
2022-12-16T12:12:46.537Z,2.80
2022-12-16T12:15:51.568Z,2.80
2022-12-16T12:19:07.183Z,2.80
2022-12-16T12:22:39.740Z,2.80
2022-12-16T12:25:42.005Z,2.80
2022-12-16T12:28:51.327Z,2.80
2022-12-16T12:32:07.085Z,2.70
2022-12-16T12:35:09.965Z,2.80
2022-12-16T12:38:06.358Z,2.70
2022-12-16T12:41:25.292Z,2.70
2022-12-16T12:44:48.516Z,2.70
2022-12-16T12:47:36.401Z,2.70
2022-12-16T12:50:28.282Z,2.70
2022-12-16T12:54:00.880Z,2.60
2022-12-16T12:57:07.526Z,2.60
2022-12-16T13:00:18.184Z,2.60
2022-12-16T13:03:28.594Z,2.60
2022-12-16T13:06:16.305Z,2.60
2022-12-16T13:09:07.778Z,2.60
2022-12-16T13:11:57.599Z,2.60
2022-12-16T13:14:51.975Z,2.60
2022-12-16T13:17:40.962Z,2.60
2022-12-16T13:20:55.410Z,2.60
2022-12-16T13:23:53.315Z,2.60
2022-12-16T13:26:41.963Z,2.60
2022-12-16T13:29:39.435Z,2.60
2022-12-16T13:32:30.744Z,2.60
2022-12-16T13:35:36.638Z,2.70
2022-12-16T13:38:21.879Z,2.60
2022-12-16T13:41:17.910Z,2.70
2022-12-16T13:44:06.684Z,2.60
2022-12-16T13:47:07.842Z,2.60
2022-12-16T13:49:56.161Z,2.60
2022-12-16T13:53:20.341Z,2.60
2022-12-16T13:56:19.324Z,2.60
2022-12-16T13:59:12.625Z,2.60
2022-12-16T14:02:17.027Z,2.50
2022-12-16T14:05:06.743Z,2.60
2022-12-16T14:07:56.279Z,2.50
2022-12-16T14:10:54.849Z,2.60
2022-12-16T14:13:59.375Z,2.60
2022-12-16T14:17:17.017Z,2.50
2022-12-16T14:20:33.277Z,2.50
2022-12-16T14:23:56.015Z,2.50
2022-12-16T14:26:39.371Z,2.50
2022-12-16T14:29:52.406Z,2.50
2022-12-16T14:32:54.027Z,2.40
2022-12-16T14:35:44.960Z,2.40
2022-12-16T14:38:47.554Z,2.40
2022-12-16T14:41:40.447Z,-0.90
2022-12-16T14:44:43.009Z,2.30
2022-12-16T14:47:39.942Z,2.30
2022-12-16T14:50:47.961Z,2.30
2022-12-16T14:53:38.589Z,2.30
2022-12-16T14:56:42.426Z,2.30
2022-12-16T14:59:35.926Z,2.30
2022-12-16T15:03:00.844Z,2.30
2022-12-16T15:05:52.021Z,2.30
2022-12-16T15:08:39.504Z,2.20
2022-12-16T15:11:29.301Z,2.30
2022-12-16T15:14:18.673Z,2.20
2022-12-16T15:17:08.104Z,2.30
2022-12-16T15:20:03.978Z,2.20
2022-12-16T15:22:50.437Z,2.10
2022-12-16T15:25:45.799Z,2.20
2022-12-16T15:28:54.162Z,2.20
2022-12-16T15:31:49.621Z,2.20
2022-12-16T15:35:07.644Z,2.20
2022-12-16T15:38:04.299Z,2.20
2022-12-16T15:40:52.113Z,2.20
2022-12-16T15:43:54.812Z,2.20
2022-12-16T15:46:48.407Z,2.20
2022-12-16T15:50:02.114Z,2.20
2022-12-16T15:52:51.554Z,2.10
2022-12-16T15:56:02.557Z,2.20
2022-12-16T15:58:56.599Z,2.20
2022-12-16T16:01:47.090Z,2.10
2022-12-16T16:04:48.515Z,2.20
2022-12-16T16:07:38.258Z,2.20
2022-12-16T16:10:43.982Z,2.20
2022-12-16T16:13:30.052Z,4.00
2022-12-16T16:16:16.040Z,2.10
2022-12-16T16:19:02.277Z,2.20
2022-12-16T16:21:48.846Z,2.20
2022-12-16T16:24:35.065Z,2.10
2022-12-16T16:27:24.500Z,2.20
2022-12-16T16:30:09.684Z,2.20
2022-12-16T16:32:56.937Z,2.20
2022-12-16T16:35:42.151Z,2.10
2022-12-16T16:38:29.926Z,2.10
2022-12-16T16:41:15.648Z,2.10
2022-12-16T16:44:01.865Z,2.20
2022-12-16T16:46:56.391Z,2.20
2022-12-16T16:49:49.308Z,2.10
2022-12-16T16:52:41.562Z,2.10
2022-12-16T16:55:48.475Z,2.20
2022-12-16T16:58:44.346Z,2.10
2022-12-16T17:01:35.533Z,2.10
2022-12-16T17:04:22.093Z,2.10
2022-12-16T17:07:07.440Z,2.10
2022-12-16T17:09:52.701Z,2.10
2022-12-16T17:12:47.942Z,2.10
2022-12-16T17:16:04.118Z,2.10
2022-12-16T17:18:52.561Z,2.10
2022-12-16T17:21:38.212Z,2.10
2022-12-16T17:24:24.102Z,2.10
2022-12-16T17:27:09.485Z,2.10
2022-12-16T17:29:54.616Z,2.10
2022-12-16T17:32:40.015Z,2.10
2022-12-16T17:35:31.091Z,2.10
2022-12-16T17:38:16.392Z,2.10
2022-12-16T17:41:01.642Z,2.10
2022-12-16T17:43:47.546Z,2.10
2022-12-16T17:46:32.806Z,2.10
2022-12-16T17:49:18.187Z,2.10
2022-12-16T17:52:03.882Z,2.10
2022-12-16T17:54:49.258Z,2.10
2022-12-16T17:57:35.099Z,2.30
2022-12-16T18:00:20.939Z,2.00
2022-12-16T18:03:06.685Z,2.10
2022-12-16T18:05:52.037Z,2.00
2022-12-16T18:08:57.177Z,2.10
2022-12-16T18:11:42.514Z,2.10
2022-12-16T18:14:27.954Z,2.10
2022-12-16T18:17:13.666Z,2.20
2022-12-16T18:20:09.654Z,2.10
2022-12-16T18:22:55.272Z,3.20
2022-12-16T18:25:40.596Z,2.10
2022-12-16T18:28:25.667Z,2.10
2022-12-16T18:31:12.595Z,2.00
2022-12-16T18:33:57.790Z,2.10
2022-12-16T18:36:43.012Z,2.10
2022-12-16T18:39:30.293Z,2.00
2022-12-16T18:42:15.441Z,2.10
2022-12-16T18:45:01.456Z,2.10
2022-12-16T18:47:47.573Z,2.10
2022-12-16T18:50:37.476Z,2.10
2022-12-16T18:53:23.953Z,2.10
2022-12-16T18:56:25.313Z,2.00
2022-12-16T18:59:11.411Z,2.00
2022-12-16T19:01:58.243Z,2.10
2022-12-16T19:04:44.148Z,2.10
2022-12-16T19:07:33.408Z,2.10
2022-12-16T19:10:19.931Z,2.10
2022-12-16T19:13:05.279Z,2.10
2022-12-16T19:15:50.567Z,2.10
2022-12-16T19:18:36.862Z,2.20
2022-12-16T19:21:23.021Z,2.10
2022-12-16T19:24:08.298Z,2.10
2022-12-16T19:26:56.632Z,2.10
2022-12-16T19:29:43.021Z,2.10
2022-12-16T19:32:28.365Z,2.10
2022-12-16T19:35:13.915Z,2.00
2022-12-16T19:37:59.183Z,2.10
2022-12-16T19:40:44.464Z,2.00
2022-12-16T19:43:29.513Z,2.00
2022-12-16T19:46:15.259Z,2.00
2022-12-16T19:49:00.625Z,2.00
2022-12-16T19:51:47.454Z,2.00
2022-12-16T19:54:33.029Z,4.90
2022-12-16T19:57:18.152Z,2.00
2022-12-16T20:00:03.523Z,2.10
2022-12-16T20:02:48.910Z,4.10
2022-12-16T20:05:34.743Z,2.00
2022-12-16T20:08:20.020Z,2.00
2022-12-16T20:11:05.208Z,2.00
2022-12-16T20:13:50.885Z,2.00
2022-12-16T20:16:36.942Z,2.00
2022-12-16T20:19:22.108Z,2.00
2022-12-16T20:22:21.081Z,2.10
2022-12-16T20:25:06.389Z,2.00
2022-12-16T20:27:51.639Z,3.80
2022-12-16T20:30:37.441Z,2.10
2022-12-16T20:33:22.780Z,2.00
2022-12-16T20:36:19.520Z,2.00
2022-12-16T20:39:05.983Z,2.00
2022-12-16T20:41:51.797Z,2.00
2022-12-16T20:44:37.095Z,2.00
2022-12-16T20:47:23.065Z,2.10
2022-12-16T20:50:08.395Z,2.10
2022-12-16T20:52:54.964Z,2.10
2022-12-16T20:55:56.143Z,2.00
2022-12-16T20:58:41.514Z,2.10
2022-12-16T21:01:26.978Z,2.00
2022-12-16T21:04:12.181Z,2.00
2022-12-16T21:06:57.428Z,2.00
2022-12-16T21:09:42.498Z,2.00
2022-12-16T21:12:28.095Z,2.00
2022-12-16T21:15:13.227Z,2.00
2022-12-16T21:17:58.416Z,2.00
2022-12-16T21:20:43.531Z,2.00
2022-12-16T21:23:28.780Z,2.00
2022-12-16T21:26:17.912Z,2.00
2022-12-16T21:29:03.303Z,1.90
2022-12-16T21:31:48.485Z,2.00
2022-12-16T21:34:33.988Z,2.00
2022-12-16T21:37:19.083Z,2.00
2022-12-16T21:40:04.987Z,2.00
2022-12-16T21:42:50.408Z,1.90
2022-12-16T21:45:36.070Z,1.90
2022-12-16T21:48:21.341Z,2.00
2022-12-16T21:51:13.416Z,3.30
2022-12-16T21:54:02.116Z,1.90
2022-12-16T21:56:51.092Z,1.90
2022-12-16T21:59:37.154Z,2.00
2022-12-16T22:02:22.458Z,1.90
2022-12-16T22:05:07.665Z,1.90
2022-12-16T22:07:53.300Z,1.90
2022-12-16T22:10:41.401Z,1.90
2022-12-16T22:13:26.680Z,1.90
2022-12-16T22:16:17.190Z,1.90
2022-12-16T22:19:03.689Z,2.00
2022-12-16T22:21:48.921Z,1.90
2022-12-16T22:24:34.172Z,2.00
2022-12-16T22:27:19.428Z,2.00
2022-12-16T22:30:05.166Z,1.90
2022-12-16T22:32:50.397Z,2.00
2022-12-16T22:35:35.965Z,2.00
2022-12-16T22:38:21.203Z,2.00
2022-12-16T22:41:14.861Z,2.00
2022-12-16T22:44:00.633Z,1.90
2022-12-16T22:46:46.945Z,2.00
2022-12-16T22:49:33.011Z,1.90
2022-12-16T22:52:18.782Z,1.90
2022-12-16T22:55:04.079Z,1.90
2022-12-16T22:57:53.439Z,1.90
2022-12-16T23:00:39.731Z,1.90
2022-12-16T23:03:25.187Z,1.90
2022-12-16T23:06:10.489Z,1.90
2022-12-16T23:08:55.523Z,1.90
2022-12-16T23:11:56.618Z,2.00
2022-12-16T23:14:43.261Z,2.00
2022-12-16T23:17:32.085Z,2.00
2022-12-16T23:20:17.509Z,2.00
2022-12-16T23:23:02.760Z,2.00
2022-12-16T23:25:47.853Z,2.00
2022-12-16T23:28:33.161Z,2.00
2022-12-16T23:31:18.320Z,2.00
2022-12-16T23:34:03.889Z,2.00
2022-12-16T23:36:48.998Z,1.90
2022-12-16T23:39:34.160Z,3.50
2022-12-16T23:42:19.339Z,2.00
2022-12-16T23:45:24.246Z,4.30
2022-12-16T23:48:23.254Z,1.90
2022-12-16T23:51:08.628Z,1.90
2022-12-16T23:53:56.403Z,1.90
2022-12-16T23:56:43.079Z,2.00
2022-12-16T23:59:29.411Z,1.90
